sensor_id;sensor_type;location;lat;lon;timestamp;temperature;humidity
21169;DHT22;10742;51.816;8.662;2023-01-24T00:02:44;7.00;94.70
21169;DHT22;10742;51.816;8.662;2023-01-24T00:06:05;7.00;94.70
21169;DHT22;10742;51.816;8.662;2023-01-24T00:09:26;7.10;94.70
21169;DHT22;10742;51.816;8.662;2023-01-24T00:12:48;7.10;95.00
21169;DHT22;10742;51.816;8.662;2023-01-24T00:16:18;7.10;94.60
21169;DHT22;10742;51.816;8.662;2023-01-24T00:19:40;7.10;94.50
21169;DHT22;10742;51.816;8.662;2023-01-24T00:23:01;7.10;94.60
21169;DHT22;10742;51.816;8.662;2023-01-24T00:26:24;7.10;94.50
21169;DHT22;10742;51.816;8.662;2023-01-24T00:29:45;7.00;94.50
21169;DHT22;10742;51.816;8.662;2023-01-24T00:33:07;7.10;94.50
21169;DHT22;10742;51.816;8.662;2023-01-24T00:36:28;7.10;94.50
21169;DHT22;10742;51.816;8.662;2023-01-24T00:39:51;7.00;94.40
21169;DHT22;10742;51.816;8.662;2023-01-24T00:43:12;7.00;94.40
21169;DHT22;10742;51.816;8.662;2023-01-24T00:46:33;7.00;94.40
21169;DHT22;10742;51.816;8.662;2023-01-24T00:49:54;7.00;94.40
21169;DHT22;10742;51.816;8.662;2023-01-24T00:53:17;7.00;94.40
21169;DHT22;10742;51.816;8.662;2023-01-24T00:56:40;7.00;94.40
21169;DHT22;10742;51.816;8.662;2023-01-24T01:00:03;7.00;94.40
21169;DHT22;10742;51.816;8.662;2023-01-24T01:03:27;7.00;94.40
21169;DHT22;10742;51.816;8.662;2023-01-24T01:06:49;7.00;94.40
21169;DHT22;10742;51.816;8.662;2023-01-24T01:10:11;7.00;94.30
21169;DHT22;10742;51.816;8.662;2023-01-24T01:13:32;7.00;94.30
21169;DHT22;10742;51.816;8.662;2023-01-24T01:16:54;7.00;94.30
21169;DHT22;10742;51.816;8.662;2023-01-24T01:20:15;7.00;94.30
21169;DHT22;10742;51.816;8.662;2023-01-24T01:23:37;7.00;94.30
21169;DHT22;10742;51.816;8.662;2023-01-24T01:26:59;6.90;94.30
21169;DHT22;10742;51.816;8.662;2023-01-24T01:30:21;6.90;94.30
21169;DHT22;10742;51.816;8.662;2023-01-24T01:33:43;6.90;94.20
21169;DHT22;10742;51.816;8.662;2023-01-24T01:37:05;6.90;94.30
21169;DHT22;10742;51.816;8.662;2023-01-24T01:40:26;6.80;94.20
21169;DHT22;10742;51.816;8.662;2023-01-24T01:43:47;6.80;94.30
21169;DHT22;10742;51.816;8.662;2023-01-24T01:47:32;6.70;94.30
21169;DHT22;10742;51.816;8.662;2023-01-24T01:54:31;6.70;94.20
21169;DHT22;10742;51.816;8.662;2023-01-24T01:57:54;6.70;94.30
21169;DHT22;10742;51.816;8.662;2023-01-24T02:01:16;6.70;94.40
21169;DHT22;10742;51.816;8.662;2023-01-24T02:04:47;6.60;94.30
21169;DHT22;10742;51.816;8.662;2023-01-24T02:08:13;6.60;94.30
21169;DHT22;10742;51.816;8.662;2023-01-24T02:11:36;6.60;94.30
21169;DHT22;10742;51.816;8.662;2023-01-24T02:15:03;6.60;94.40
21169;DHT22;10742;51.816;8.662;2023-01-24T02:18:44;6.60;94.40
21169;DHT22;10742;51.816;8.662;2023-01-24T02:26:16;6.60;94.20
21169;DHT22;10742;51.816;8.662;2023-01-24T02:29:37;6.60;94.20
21169;DHT22;10742;51.816;8.662;2023-01-24T02:32:58;6.60;94.30
21169;DHT22;10742;51.816;8.662;2023-01-24T02:36:35;6.60;94.30
21169;DHT22;10742;51.816;8.662;2023-01-24T02:40:05;6.60;94.10
21169;DHT22;10742;51.816;8.662;2023-01-24T02:43:28;6.60;94.20
21169;DHT22;10742;51.816;8.662;2023-01-24T02:46:50;6.60;94.30
21169;DHT22;10742;51.816;8.662;2023-01-24T02:50:12;6.60;94.20
21169;DHT22;10742;51.816;8.662;2023-01-24T02:53:33;6.60;94.20
21169;DHT22;10742;51.816;8.662;2023-01-24T02:56:54;6.60;94.20
21169;DHT22;10742;51.816;8.662;2023-01-24T03:00:40;6.60;94.20
21169;DHT22;10742;51.816;8.662;2023-01-24T03:04:04;6.60;94.10
21169;DHT22;10742;51.816;8.662;2023-01-24T03:07:26;6.60;94.10
21169;DHT22;10742;51.816;8.662;2023-01-24T03:10:53;6.70;94.10
21169;DHT22;10742;51.816;8.662;2023-01-24T03:14:15;6.70;94.10
21169;DHT22;10742;51.816;8.662;2023-01-24T03:17:58;6.70;94.00
21169;DHT22;10742;51.816;8.662;2023-01-24T03:21:39;6.80;94.00
21169;DHT22;10742;51.816;8.662;2023-01-24T03:25:19;6.80;94.00
21169;DHT22;10742;51.816;8.662;2023-01-24T03:28:59;6.70;93.90
21169;DHT22;10742;51.816;8.662;2023-01-24T03:32:39;6.70;93.90
21169;DHT22;10742;51.816;8.662;2023-01-24T03:36:19;6.80;93.90
21169;DHT22;10742;51.816;8.662;2023-01-24T03:39:44;6.80;93.80
21169;DHT22;10742;51.816;8.662;2023-01-24T03:43:20;6.70;93.80
21169;DHT22;10742;51.816;8.662;2023-01-24T03:46:41;6.70;93.80
21169;DHT22;10742;51.816;8.662;2023-01-24T03:50:05;6.70;93.70
21169;DHT22;10742;51.816;8.662;2023-01-24T03:53:45;6.70;93.70
21169;DHT22;10742;51.816;8.662;2023-01-24T03:57:09;6.70;93.70
21169;DHT22;10742;51.816;8.662;2023-01-24T04:00:31;6.70;93.70
21169;DHT22;10742;51.816;8.662;2023-01-24T04:03:55;6.70;93.70
21169;DHT22;10742;51.816;8.662;2023-01-24T04:07:16;6.80;93.60
21169;DHT22;10742;51.816;8.662;2023-01-24T04:10:48;6.70;93.60
21169;DHT22;10742;51.816;8.662;2023-01-24T04:14:09;6.70;93.60
21169;DHT22;10742;51.816;8.662;2023-01-24T04:17:40;6.70;93.60
21169;DHT22;10742;51.816;8.662;2023-01-24T04:21:04;6.70;93.60
21169;DHT22;10742;51.816;8.662;2023-01-24T04:24:27;6.70;93.60
21169;DHT22;10742;51.816;8.662;2023-01-24T04:27:48;6.60;93.50
21169;DHT22;10742;51.816;8.662;2023-01-24T04:31:15;6.60;93.50
21169;DHT22;10742;51.816;8.662;2023-01-24T04:34:55;6.60;93.50
21169;DHT22;10742;51.816;8.662;2023-01-24T04:38:41;6.60;93.50
21169;DHT22;10742;51.816;8.662;2023-01-24T04:42:17;6.60;93.50
21169;DHT22;10742;51.816;8.662;2023-01-24T04:45:40;6.60;93.50
21169;DHT22;10742;51.816;8.662;2023-01-24T04:49:05;6.60;93.50
21169;DHT22;10742;51.816;8.662;2023-01-24T04:52:32;6.60;93.50
21169;DHT22;10742;51.816;8.662;2023-01-24T04:56:01;6.60;93.40
21169;DHT22;10742;51.816;8.662;2023-01-24T04:59:25;6.60;93.40
21169;DHT22;10742;51.816;8.662;2023-01-24T05:02:46;6.70;93.50
21169;DHT22;10742;51.816;8.662;2023-01-24T05:06:09;6.70;93.40
21169;DHT22;10742;51.816;8.662;2023-01-24T05:09:31;6.70;93.40
21169;DHT22;10742;51.816;8.662;2023-01-24T05:12:56;6.70;93.40
21169;DHT22;10742;51.816;8.662;2023-01-24T05:16:18;6.70;93.30
21169;DHT22;10742;51.816;8.662;2023-01-24T05:19:40;6.70;93.30
21169;DHT22;10742;51.816;8.662;2023-01-24T05:23:02;6.70;93.30
21169;DHT22;10742;51.816;8.662;2023-01-24T05:26:28;6.60;93.20
21169;DHT22;10742;51.816;8.662;2023-01-24T05:29:51;6.60;93.20
21169;DHT22;10742;51.816;8.662;2023-01-24T05:33:13;6.60;93.30
21169;DHT22;10742;51.816;8.662;2023-01-24T05:36:34;6.50;93.30
21169;DHT22;10742;51.816;8.662;2023-01-24T05:39:56;6.50;93.30
21169;DHT22;10742;51.816;8.662;2023-01-24T05:43:17;6.50;93.30
21169;DHT22;10742;51.816;8.662;2023-01-24T05:46:39;6.50;93.40
21169;DHT22;10742;51.816;8.662;2023-01-24T05:50:10;6.50;93.40
21169;DHT22;10742;51.816;8.662;2023-01-24T05:53:33;6.50;93.40
21169;DHT22;10742;51.816;8.662;2023-01-24T05:56:54;6.50;93.40
21169;DHT22;10742;51.816;8.662;2023-01-24T06:00:16;6.50;93.40
21169;DHT22;10742;51.816;8.662;2023-01-24T06:03:57;6.50;93.40
21169;DHT22;10742;51.816;8.662;2023-01-24T06:07:21;6.50;93.40
21169;DHT22;10742;51.816;8.662;2023-01-24T06:10:43;6.50;93.40
21169;DHT22;10742;51.816;8.662;2023-01-24T06:14:05;6.50;93.40
21169;DHT22;10742;51.816;8.662;2023-01-24T06:17:27;6.50;93.40
21169;DHT22;10742;51.816;8.662;2023-01-24T06:20:48;6.50;93.40
21169;DHT22;10742;51.816;8.662;2023-01-24T06:24:18;6.50;93.30
21169;DHT22;10742;51.816;8.662;2023-01-24T06:27:59;6.50;93.30
21169;DHT22;10742;51.816;8.662;2023-01-24T06:31:29;6.50;93.50
21169;DHT22;10742;51.816;8.662;2023-01-24T06:38:21;6.50;93.30
21169;DHT22;10742;51.816;8.662;2023-01-24T06:41:43;6.50;93.30
21169;DHT22;10742;51.816;8.662;2023-01-24T06:45:05;6.50;93.30
21169;DHT22;10742;51.816;8.662;2023-01-24T06:48:27;6.50;93.40
21169;DHT22;10742;51.816;8.662;2023-01-24T06:51:50;6.60;93.40
21169;DHT22;10742;51.816;8.662;2023-01-24T06:55:11;6.60;93.40
21169;DHT22;10742;51.816;8.662;2023-01-24T06:58:32;6.60;93.40
21169;DHT22;10742;51.816;8.662;2023-01-24T07:01:53;6.60;93.40
21169;DHT22;10742;51.816;8.662;2023-01-24T07:05:15;6.70;93.40
21169;DHT22;10742;51.816;8.662;2023-01-24T07:08:36;6.70;93.30
21169;DHT22;10742;51.816;8.662;2023-01-24T07:11:58;6.70;93.30
21169;DHT22;10742;51.816;8.662;2023-01-24T07:15:19;6.70;93.30
21169;DHT22;10742;51.816;8.662;2023-01-24T07:18:40;6.70;93.20
21169;DHT22;10742;51.816;8.662;2023-01-24T07:22:02;6.70;93.20
21169;DHT22;10742;51.816;8.662;2023-01-24T07:25:23;6.70;93.20
21169;DHT22;10742;51.816;8.662;2023-01-24T07:28:45;6.60;93.20
21169;DHT22;10742;51.816;8.662;2023-01-24T07:32:09;6.60;93.10
21169;DHT22;10742;51.816;8.662;2023-01-24T07:35:30;6.60;93.10
21169;DHT22;10742;51.816;8.662;2023-01-24T07:38:56;6.60;93.10
21169;DHT22;10742;51.816;8.662;2023-01-24T07:42:17;6.60;93.10
21169;DHT22;10742;51.816;8.662;2023-01-24T07:45:38;6.60;93.20
21169;DHT22;10742;51.816;8.662;2023-01-24T07:49:01;6.60;93.20
21169;DHT22;10742;51.816;8.662;2023-01-24T07:52:23;6.60;93.20
21169;DHT22;10742;51.816;8.662;2023-01-24T07:55:44;6.60;93.30
21169;DHT22;10742;51.816;8.662;2023-01-24T07:59:20;6.60;93.30
21169;DHT22;10742;51.816;8.662;2023-01-24T08:02:53;6.60;93.20
21169;DHT22;10742;51.816;8.662;2023-01-24T08:06:15;6.60;93.10
21169;DHT22;10742;51.816;8.662;2023-01-24T08:09:37;6.60;93.10
21169;DHT22;10742;51.816;8.662;2023-01-24T08:12:58;6.60;93.20
21169;DHT22;10742;51.816;8.662;2023-01-24T08:16:19;6.60;93.20
21169;DHT22;10742;51.816;8.662;2023-01-24T08:19:44;6.60;93.10
21169;DHT22;10742;51.816;8.662;2023-01-24T08:23:21;6.60;93.10
21169;DHT22;10742;51.816;8.662;2023-01-24T08:26:42;6.50;93.10
21169;DHT22;10742;51.816;8.662;2023-01-24T08:30:08;6.60;93.20
21169;DHT22;10742;51.816;8.662;2023-01-24T08:33:31;6.50;93.10
21169;DHT22;10742;51.816;8.662;2023-01-24T08:36:58;6.60;93.10
21169;DHT22;10742;51.816;8.662;2023-01-24T08:40:19;6.60;93.10
21169;DHT22;10742;51.816;8.662;2023-01-24T08:43:41;6.60;93.00
21169;DHT22;10742;51.816;8.662;2023-01-24T08:47:03;6.60;93.10
21169;DHT22;10742;51.816;8.662;2023-01-24T08:50:24;6.60;93.10
21169;DHT22;10742;51.816;8.662;2023-01-24T08:53:45;6.60;93.10
21169;DHT22;10742;51.816;8.662;2023-01-24T08:57:07;6.60;93.10
21169;DHT22;10742;51.816;8.662;2023-01-24T09:00:28;6.70;93.10
21169;DHT22;10742;51.816;8.662;2023-01-24T09:03:50;6.70;93.10
21169;DHT22;10742;51.816;8.662;2023-01-24T09:07:11;6.70;93.00
21169;DHT22;10742;51.816;8.662;2023-01-24T09:10:33;6.70;93.00
21169;DHT22;10742;51.816;8.662;2023-01-24T09:13:54;6.80;93.00
21169;DHT22;10742;51.816;8.662;2023-01-24T09:17:15;6.80;93.00
21169;DHT22;10742;51.816;8.662;2023-01-24T09:20:37;6.80;93.00
21169;DHT22;10742;51.816;8.662;2023-01-24T09:23:58;6.80;92.90
21169;DHT22;10742;51.816;8.662;2023-01-24T09:27:20;6.80;92.90
21169;DHT22;10742;51.816;8.662;2023-01-24T09:30:41;6.80;92.90
21169;DHT22;10742;51.816;8.662;2023-01-24T09:34:03;6.80;92.90
21169;DHT22;10742;51.816;8.662;2023-01-24T09:37:24;6.80;92.90
21169;DHT22;10742;51.816;8.662;2023-01-24T09:44:46;6.80;92.70
21169;DHT22;10742;51.816;8.662;2023-01-24T09:48:13;6.80;92.50
21169;DHT22;10742;51.816;8.662;2023-01-24T09:51:46;6.80;92.70
21169;DHT22;10742;51.816;8.662;2023-01-24T09:55:16;6.80;92.70
21169;DHT22;10742;51.816;8.662;2023-01-24T09:58:41;6.80;92.70
21169;DHT22;10742;51.816;8.662;2023-01-24T10:02:18;6.90;92.80
21169;DHT22;10742;51.816;8.662;2023-01-24T10:05:43;6.90;92.70
21169;DHT22;10742;51.816;8.662;2023-01-24T10:09:12;6.90;92.70
21169;DHT22;10742;51.816;8.662;2023-01-24T10:12:41;6.90;92.70
21169;DHT22;10742;51.816;8.662;2023-01-24T10:16:26;7.00;92.70
21169;DHT22;10742;51.816;8.662;2023-01-24T10:23:42;7.00;92.40
21169;DHT22;10742;51.816;8.662;2023-01-24T10:27:23;7.00;92.40
21169;DHT22;10742;51.816;8.662;2023-01-24T10:31:11;7.00;92.40
21169;DHT22;10742;51.816;8.662;2023-01-24T10:34:43;7.00;92.50
21169;DHT22;10742;51.816;8.662;2023-01-24T10:38:09;7.10;92.50
21169;DHT22;10742;51.816;8.662;2023-01-24T10:41:32;7.00;92.50
21169;DHT22;10742;51.816;8.662;2023-01-24T10:44:57;7.10;92.60
21169;DHT22;10742;51.816;8.662;2023-01-24T10:52:16;7.10;92.50
21169;DHT22;10742;51.816;8.662;2023-01-24T10:55:39;7.10;92.30
21169;DHT22;10742;51.816;8.662;2023-01-24T10:59:08;7.20;92.50
21169;DHT22;10742;51.816;8.662;2023-01-24T11:02:32;7.20;92.40
21169;DHT22;10742;51.816;8.662;2023-01-24T11:05:57;7.20;92.50
21169;DHT22;10742;51.816;8.662;2023-01-24T11:09:21;7.20;92.50
21169;DHT22;10742;51.816;8.662;2023-01-24T11:12:57;7.30;92.40
21169;DHT22;10742;51.816;8.662;2023-01-24T11:16:21;7.30;92.30
21169;DHT22;10742;51.816;8.662;2023-01-24T11:19:43;7.30;92.40
21169;DHT22;10742;51.816;8.662;2023-01-24T11:23:20;7.30;92.40
21169;DHT22;10742;51.816;8.662;2023-01-24T11:27:14;7.30;92.20
21169;DHT22;10742;51.816;8.662;2023-01-24T11:30:37;7.40;92.20
21169;DHT22;10742;51.816;8.662;2023-01-24T11:41:36;7.50;92.00
21169;DHT22;10742;51.816;8.662;2023-01-24T11:48:56;7.50;92.30
21169;DHT22;10742;51.816;8.662;2023-01-24T11:56:14;7.60;92.20
21169;DHT22;10742;51.816;8.662;2023-01-24T12:15:00;7.60;91.70
21169;DHT22;10742;51.816;8.662;2023-01-24T12:19:02;7.70;92.00
21169;DHT22;10742;51.816;8.662;2023-01-24T12:22:18;7.60;91.90
21169;DHT22;10742;51.816;8.662;2023-01-24T12:25:44;7.60;91.90
21169;DHT22;10742;51.816;8.662;2023-01-24T12:29:21;7.60;91.80
21169;DHT22;10742;51.816;8.662;2023-01-24T12:32:51;7.60;91.70
21169;DHT22;10742;51.816;8.662;2023-01-24T12:47:31;7.50;92.10
21169;DHT22;10742;51.816;8.662;2023-01-24T12:51:21;7.50;92.00
21169;DHT22;10742;51.816;8.662;2023-01-24T12:54:53;7.50;91.80
21169;DHT22;10742;51.816;8.662;2023-01-24T12:58:27;7.50;91.90
21169;DHT22;10742;51.816;8.662;2023-01-24T13:06:42;7.40;91.80
21169;DHT22;10742;51.816;8.662;2023-01-24T13:13:29;7.50;91.80
21169;DHT22;10742;51.816;8.662;2023-01-24T13:34:43;7.50;91.80
21169;DHT22;10742;51.816;8.662;2023-01-24T13:38:16;7.50;91.70
21169;DHT22;10742;51.816;8.662;2023-01-24T13:41:39;7.50;91.60
21169;DHT22;10742;51.816;8.662;2023-01-24T13:48:55;7.40;91.60
21169;DHT22;10742;51.816;8.662;2023-01-24T13:56:01;7.40;91.70
21169;DHT22;10742;51.816;8.662;2023-01-24T13:59:24;7.40;91.70
21169;DHT22;10742;51.816;8.662;2023-01-24T14:06:12;7.40;91.80
21169;DHT22;10742;51.816;8.662;2023-01-24T14:09:34;7.40;91.80
21169;DHT22;10742;51.816;8.662;2023-01-24T14:12:55;7.40;92.20
21169;DHT22;10742;51.816;8.662;2023-01-24T14:19:48;7.40;91.60
21169;DHT22;10742;51.816;8.662;2023-01-24T14:23:22;7.40;91.80
21169;DHT22;10742;51.816;8.662;2023-01-24T14:26:51;7.40;91.60
21169;DHT22;10742;51.816;8.662;2023-01-24T14:33:47;7.40;91.60
21169;DHT22;10742;51.816;8.662;2023-01-24T14:37:12;7.30;91.40
21169;DHT22;10742;51.816;8.662;2023-01-24T14:40:33;7.40;91.60
21169;DHT22;10742;51.816;8.662;2023-01-24T14:43:54;7.30;91.60
21169;DHT22;10742;51.816;8.662;2023-01-24T14:50:38;7.30;91.70
21169;DHT22;10742;51.816;8.662;2023-01-24T14:53:59;7.30;91.60
21169;DHT22;10742;51.816;8.662;2023-01-24T14:57:26;7.30;91.60
21169;DHT22;10742;51.816;8.662;2023-01-24T15:00:49;7.30;91.40
21169;DHT22;10742;51.816;8.662;2023-01-24T15:04:22;7.30;91.50
21169;DHT22;10742;51.816;8.662;2023-01-24T15:07:46;7.30;91.30
21169;DHT22;10742;51.816;8.662;2023-01-24T15:11:16;7.30;91.40
21169;DHT22;10742;51.816;8.662;2023-01-24T15:14:39;7.30;91.40
21169;DHT22;10742;51.816;8.662;2023-01-24T15:18:07;7.20;91.40
21169;DHT22;10742;51.816;8.662;2023-01-24T15:21:45;7.20;91.40
21169;DHT22;10742;51.816;8.662;2023-01-24T15:25:31;7.20;91.40
21169;DHT22;10742;51.816;8.662;2023-01-24T15:28:52;7.10;91.30
21169;DHT22;10742;51.816;8.662;2023-01-24T15:35:53;7.10;91.30
21169;DHT22;10742;51.816;8.662;2023-01-24T15:39:15;7.10;91.50
21169;DHT22;10742;51.816;8.662;2023-01-24T15:42:36;7.10;91.50
21169;DHT22;10742;51.816;8.662;2023-01-24T15:46:52;7.10;91.60
21169;DHT22;10742;51.816;8.662;2023-01-24T15:50:32;7.10;91.70
21169;DHT22;10742;51.816;8.662;2023-01-24T15:54:13;7.10;91.90
21169;DHT22;10742;51.816;8.662;2023-01-24T15:57:37;7.20;92.00
21169;DHT22;10742;51.816;8.662;2023-01-24T16:01:00;7.30;92.00
21169;DHT22;10742;51.816;8.662;2023-01-24T16:04:22;7.30;91.80
21169;DHT22;10742;51.816;8.662;2023-01-24T16:07:44;7.40;91.70
21169;DHT22;10742;51.816;8.662;2023-01-24T16:11:06;7.40;91.50
21169;DHT22;10742;51.816;8.662;2023-01-24T16:14:27;7.40;91.40
21169;DHT22;10742;51.816;8.662;2023-01-24T16:17:50;7.40;91.20
21169;DHT22;10742;51.816;8.662;2023-01-24T16:21:11;7.30;91.20
21169;DHT22;10742;51.816;8.662;2023-01-24T16:24:32;7.30;91.30
21169;DHT22;10742;51.816;8.662;2023-01-24T16:27:54;7.30;91.20
21169;DHT22;10742;51.816;8.662;2023-01-24T16:31:16;7.20;91.10
21169;DHT22;10742;51.816;8.662;2023-01-24T16:34:38;7.10;91.10
21169;DHT22;10742;51.816;8.662;2023-01-24T16:37:59;7.10;91.10
21169;DHT22;10742;51.816;8.662;2023-01-24T16:41:20;7.00;91.10
21169;DHT22;10742;51.816;8.662;2023-01-24T16:44:42;7.00;91.20
21169;DHT22;10742;51.816;8.662;2023-01-24T16:48:03;6.90;91.20
21169;DHT22;10742;51.816;8.662;2023-01-24T16:51:25;6.90;91.20
21169;DHT22;10742;51.816;8.662;2023-01-24T16:54:48;6.80;91.20
21169;DHT22;10742;51.816;8.662;2023-01-24T16:58:11;6.80;91.30
21169;DHT22;10742;51.816;8.662;2023-01-24T17:01:33;6.80;91.30
21169;DHT22;10742;51.816;8.662;2023-01-24T17:04:54;6.70;91.30
21169;DHT22;10742;51.816;8.662;2023-01-24T17:08:16;6.70;91.30
21169;DHT22;10742;51.816;8.662;2023-01-24T17:11:37;6.70;91.40
21169;DHT22;10742;51.816;8.662;2023-01-24T17:14:59;6.70;91.40
21169;DHT22;10742;51.816;8.662;2023-01-24T17:18:20;6.60;91.40
21169;DHT22;10742;51.816;8.662;2023-01-24T17:21:42;6.60;91.40
21169;DHT22;10742;51.816;8.662;2023-01-24T17:25:04;6.60;91.40
21169;DHT22;10742;51.816;8.662;2023-01-24T17:28:25;6.60;91.40
21169;DHT22;10742;51.816;8.662;2023-01-24T17:31:47;6.60;91.40
21169;DHT22;10742;51.816;8.662;2023-01-24T17:35:08;6.50;91.40
21169;DHT22;10742;51.816;8.662;2023-01-24T17:38:30;6.50;91.40
21169;DHT22;10742;51.816;8.662;2023-01-24T17:41:51;6.50;91.50
21169;DHT22;10742;51.816;8.662;2023-01-24T17:45:12;6.50;91.50
21169;DHT22;10742;51.816;8.662;2023-01-24T17:48:34;6.50;91.50
21169;DHT22;10742;51.816;8.662;2023-01-24T17:51:55;6.40;91.50
21169;DHT22;10742;51.816;8.662;2023-01-24T17:55:17;6.40;91.50
21169;DHT22;10742;51.816;8.662;2023-01-24T17:58:38;6.40;91.60
21169;DHT22;10742;51.816;8.662;2023-01-24T18:01:59;6.40;91.60
21169;DHT22;10742;51.816;8.662;2023-01-24T18:05:20;6.40;91.70
21169;DHT22;10742;51.816;8.662;2023-01-24T18:08:42;6.40;91.70
21169;DHT22;10742;51.816;8.662;2023-01-24T18:12:03;6.40;91.60
21169;DHT22;10742;51.816;8.662;2023-01-24T18:15:24;6.40;91.60
21169;DHT22;10742;51.816;8.662;2023-01-24T18:18:46;6.40;91.50
21169;DHT22;10742;51.816;8.662;2023-01-24T18:22:08;6.40;91.60
21169;DHT22;10742;51.816;8.662;2023-01-24T18:25:31;6.30;91.50
21169;DHT22;10742;51.816;8.662;2023-01-24T18:28:52;6.40;91.50
21169;DHT22;10742;51.816;8.662;2023-01-24T18:32:14;6.30;91.50
21169;DHT22;10742;51.816;8.662;2023-01-24T18:35:39;6.30;91.50
21169;DHT22;10742;51.816;8.662;2023-01-24T18:39:01;6.30;91.50
21169;DHT22;10742;51.816;8.662;2023-01-24T18:42:22;6.20;91.50
21169;DHT22;10742;51.816;8.662;2023-01-24T18:45:43;6.20;91.50
21169;DHT22;10742;51.816;8.662;2023-01-24T18:49:05;6.10;91.50
21169;DHT22;10742;51.816;8.662;2023-01-24T18:52:26;6.10;91.60
21169;DHT22;10742;51.816;8.662;2023-01-24T18:55:47;6.10;91.70
21169;DHT22;10742;51.816;8.662;2023-01-24T18:59:09;6.10;91.80
21169;DHT22;10742;51.816;8.662;2023-01-24T19:02:31;6.10;91.80
21169;DHT22;10742;51.816;8.662;2023-01-24T19:05:52;6.10;91.80
21169;DHT22;10742;51.816;8.662;2023-01-24T19:09:14;6.10;91.80
21169;DHT22;10742;51.816;8.662;2023-01-24T19:12:36;6.10;91.90
21169;DHT22;10742;51.816;8.662;2023-01-24T19:16:01;6.10;91.90
21169;DHT22;10742;51.816;8.662;2023-01-24T19:19:23;6.20;91.80
21169;DHT22;10742;51.816;8.662;2023-01-24T19:22:46;6.20;91.80
21169;DHT22;10742;51.816;8.662;2023-01-24T19:26:11;6.10;91.70
21169;DHT22;10742;51.816;8.662;2023-01-24T19:29:32;6.10;91.70
21169;DHT22;10742;51.816;8.662;2023-01-24T19:32:53;6.10;91.70
21169;DHT22;10742;51.816;8.662;2023-01-24T19:36:15;6.10;91.70
21169;DHT22;10742;51.816;8.662;2023-01-24T19:39:36;6.10;91.80
21169;DHT22;10742;51.816;8.662;2023-01-24T19:42:57;6.10;91.80
21169;DHT22;10742;51.816;8.662;2023-01-24T19:46:19;6.10;91.80
21169;DHT22;10742;51.816;8.662;2023-01-24T19:49:40;6.10;92.00
21169;DHT22;10742;51.816;8.662;2023-01-24T19:53:05;6.10;91.80
21169;DHT22;10742;51.816;8.662;2023-01-24T19:56:27;6.10;91.80
21169;DHT22;10742;51.816;8.662;2023-01-24T19:59:51;6.10;91.80
21169;DHT22;10742;51.816;8.662;2023-01-24T20:03:12;6.10;91.80
21169;DHT22;10742;51.816;8.662;2023-01-24T20:06:35;6.10;91.90
21169;DHT22;10742;51.816;8.662;2023-01-24T20:09:56;6.10;91.90
21169;DHT22;10742;51.816;8.662;2023-01-24T20:13:17;6.10;91.90
21169;DHT22;10742;51.816;8.662;2023-01-24T20:16:46;6.10;91.90
21169;DHT22;10742;51.816;8.662;2023-01-24T20:20:08;6.10;91.80
21169;DHT22;10742;51.816;8.662;2023-01-24T20:23:30;6.10;91.90
21169;DHT22;10742;51.816;8.662;2023-01-24T20:26:52;6.10;91.90
21169;DHT22;10742;51.816;8.662;2023-01-24T20:30:13;6.10;91.80
21169;DHT22;10742;51.816;8.662;2023-01-24T20:33:36;6.10;91.90
21169;DHT22;10742;51.816;8.662;2023-01-24T20:36:58;6.10;91.90
21169;DHT22;10742;51.816;8.662;2023-01-24T20:40:19;6.10;91.90
21169;DHT22;10742;51.816;8.662;2023-01-24T20:43:44;6.10;91.90
21169;DHT22;10742;51.816;8.662;2023-01-24T20:47:07;6.10;92.30
21169;DHT22;10742;51.816;8.662;2023-01-24T20:50:29;6.20;92.00
21169;DHT22;10742;51.816;8.662;2023-01-24T20:53:51;6.20;92.00
21169;DHT22;10742;51.816;8.662;2023-01-24T20:57:12;6.10;92.00
21169;DHT22;10742;51.816;8.662;2023-01-24T21:00:34;6.20;92.00
21169;DHT22;10742;51.816;8.662;2023-01-24T21:04:00;6.20;92.00
21169;DHT22;10742;51.816;8.662;2023-01-24T21:07:22;6.10;91.90
21169;DHT22;10742;51.816;8.662;2023-01-24T21:10:47;6.10;92.00
21169;DHT22;10742;51.816;8.662;2023-01-24T21:14:12;6.10;92.40
21169;DHT22;10742;51.816;8.662;2023-01-24T21:17:33;6.10;92.00
21169;DHT22;10742;51.816;8.662;2023-01-24T21:20:56;6.00;92.10
21169;DHT22;10742;51.816;8.662;2023-01-24T21:24:18;6.10;92.10
21169;DHT22;10742;51.816;8.662;2023-01-24T21:27:54;6.00;92.10
21169;DHT22;10742;51.816;8.662;2023-01-24T21:31:18;6.00;92.10
21169;DHT22;10742;51.816;8.662;2023-01-24T21:34:40;6.00;92.10
21169;DHT22;10742;51.816;8.662;2023-01-24T21:38:02;6.10;92.20
21169;DHT22;10742;51.816;8.662;2023-01-24T21:41:23;6.00;92.20
21169;DHT22;10742;51.816;8.662;2023-01-24T21:45:03;6.00;92.20
21169;DHT22;10742;51.816;8.662;2023-01-24T21:48:25;6.00;92.30
21169;DHT22;10742;51.816;8.662;2023-01-24T21:52:05;6.00;92.30
21169;DHT22;10742;51.816;8.662;2023-01-24T21:55:26;6.00;92.30
21169;DHT22;10742;51.816;8.662;2023-01-24T21:58:48;6.00;92.30
21169;DHT22;10742;51.816;8.662;2023-01-24T22:02:18;6.00;92.80
21169;DHT22;10742;51.816;8.662;2023-01-24T22:05:39;6.00;92.50
21169;DHT22;10742;51.816;8.662;2023-01-24T22:09:00;6.00;92.50
21169;DHT22;10742;51.816;8.662;2023-01-24T22:12:22;6.10;92.50
21169;DHT22;10742;51.816;8.662;2023-01-24T22:15:44;6.10;92.50
21169;DHT22;10742;51.816;8.662;2023-01-24T22:19:10;6.10;92.50
21169;DHT22;10742;51.816;8.662;2023-01-24T22:26:07;6.10;92.60
21169;DHT22;10742;51.816;8.662;2023-01-24T22:29:31;6.20;92.60
21169;DHT22;10742;51.816;8.662;2023-01-24T22:32:56;6.20;92.50
21169;DHT22;10742;51.816;8.662;2023-01-24T22:36:17;6.20;92.50
21169;DHT22;10742;51.816;8.662;2023-01-24T22:39:38;6.20;92.50
21169;DHT22;10742;51.816;8.662;2023-01-24T22:43:00;6.20;92.60
21169;DHT22;10742;51.816;8.662;2023-01-24T22:46:22;6.20;92.60
21169;DHT22;10742;51.816;8.662;2023-01-24T22:49:45;6.20;92.70
21169;DHT22;10742;51.816;8.662;2023-01-24T22:53:06;6.20;92.70
21169;DHT22;10742;51.816;8.662;2023-01-24T22:56:32;6.20;92.70
21169;DHT22;10742;51.816;8.662;2023-01-24T22:59:53;6.20;92.70
21169;DHT22;10742;51.816;8.662;2023-01-24T23:03:15;6.20;92.70
21169;DHT22;10742;51.816;8.662;2023-01-24T23:06:36;6.20;92.70
21169;DHT22;10742;51.816;8.662;2023-01-24T23:09:58;6.20;92.70
21169;DHT22;10742;51.816;8.662;2023-01-24T23:13:19;6.20;92.60
21169;DHT22;10742;51.816;8.662;2023-01-24T23:17:05;6.10;92.60
21169;DHT22;10742;51.816;8.662;2023-01-24T23:20:27;6.10;92.70
21169;DHT22;10742;51.816;8.662;2023-01-24T23:24:06;6.10;92.80
21169;DHT22;10742;51.816;8.662;2023-01-24T23:27:32;6.10;92.90
21169;DHT22;10742;51.816;8.662;2023-01-24T23:30:59;6.00;93.00
21169;DHT22;10742;51.816;8.662;2023-01-24T23:34:34;6.10;93.20
21169;DHT22;10742;51.816;8.662;2023-01-24T23:37:56;6.10;93.00
21169;DHT22;10742;51.816;8.662;2023-01-24T23:41:17;6.10;93.00
21169;DHT22;10742;51.816;8.662;2023-01-24T23:44:39;6.10;93.00
21169;DHT22;10742;51.816;8.662;2023-01-24T23:48:00;6.10;93.00
21169;DHT22;10742;51.816;8.662;2023-01-24T23:51:22;6.10;93.00
21169;DHT22;10742;51.816;8.662;2023-01-24T23:54:45;6.10;93.10